createdAt,value
2022-10-22T00:00:05.605Z,88.60
2022-10-22T00:01:07.632Z,88.78
2022-10-22T00:02:09.591Z,88.94
2022-10-22T00:03:11.503Z,88.74
2022-10-22T00:04:13.380Z,88.89
2022-10-22T00:05:15.223Z,89.28
2022-10-22T00:06:17.183Z,89.31
2022-10-22T00:07:19.068Z,89.15
2022-10-22T00:08:20.913Z,88.79
2022-10-22T00:09:22.756Z,89.03
2022-10-22T00:10:24.632Z,88.41
2022-10-22T00:11:27.356Z,88.69
2022-10-22T00:12:29.185Z,88.94
2022-10-22T00:13:31.101Z,89.38
2022-10-22T00:14:32.841Z,89.60
2022-10-22T00:15:34.639Z,89.65
2022-10-22T00:16:36.401Z,89.42
2022-10-22T00:17:38.526Z,89.56
2022-10-22T00:18:41.156Z,89.43
2022-10-22T00:19:43.142Z,89.78
2022-10-22T00:20:44.991Z,89.82
2022-10-22T00:21:46.797Z,89.68
2022-10-22T00:22:48.915Z,89.47
2022-10-22T00:23:50.802Z,89.43
2022-10-22T00:24:52.585Z,89.11
2022-10-22T00:25:54.431Z,89.10
2022-10-22T00:26:56.226Z,89.48
2022-10-22T00:27:58.027Z,88.85
2022-10-22T00:28:59.896Z,89.12
2022-10-22T00:30:01.714Z,89.73
2022-10-22T00:31:03.702Z,89.74
2022-10-22T00:32:05.948Z,89.68
2022-10-22T00:33:07.725Z,89.64
2022-10-22T00:34:09.599Z,89.80
2022-10-22T00:35:11.382Z,90.45
2022-10-22T00:36:13.268Z,90.25
2022-10-22T00:37:15.173Z,90.59
2022-10-22T00:38:17.165Z,90.87
2022-10-22T00:39:20.240Z,90.67
2022-10-22T00:40:22.072Z,90.44
2022-10-22T00:41:23.861Z,90.57
2022-10-22T00:42:27.027Z,90.68
2022-10-22T00:43:28.798Z,90.16
2022-10-22T00:44:49.498Z,90.16
2022-10-22T00:45:51.327Z,90.26
2022-10-22T00:46:53.108Z,90.12
2022-10-22T00:48:13.467Z,90.08
2022-10-22T00:49:15.278Z,90.00
2022-10-22T00:50:23.986Z,89.71
2022-10-22T00:51:28.789Z,89.83
2022-10-22T00:52:30.604Z,89.89
2022-10-22T00:53:35.260Z,89.40
2022-10-22T00:54:37.945Z,89.57
2022-10-22T00:55:40.727Z,89.54
2022-10-22T00:56:42.563Z,89.67
2022-10-22T00:57:44.715Z,89.15
2022-10-22T00:58:52.400Z,89.43
2022-10-22T00:59:55.042Z,89.50
2022-10-22T01:00:57.566Z,89.80
2022-10-22T01:01:59.682Z,89.81
2022-10-22T01:03:01.802Z,89.43
2022-10-22T01:04:03.621Z,89.53
2022-10-22T01:05:05.549Z,89.14
2022-10-22T01:06:07.948Z,89.43
2022-10-22T01:07:15.909Z,89.34
2022-10-22T01:08:22.574Z,89.33
2022-10-22T01:09:27.247Z,89.66
2022-10-22T01:10:38.229Z,89.60
2022-10-22T01:11:49.651Z,88.96
2022-10-22T01:13:13.610Z,88.86
2022-10-22T01:14:23.312Z,88.66
2022-10-22T01:15:29.927Z,88.94
2022-10-22T01:16:31.696Z,88.66
2022-10-22T01:17:41.831Z,88.57
2022-10-22T01:18:49.337Z,88.35
2022-10-22T01:20:04.299Z,88.37
2022-10-22T01:21:09.063Z,88.07
2022-10-22T01:22:29.604Z,88.64
2022-10-22T01:23:40.448Z,88.43
2022-10-22T01:24:45.161Z,88.79
2022-10-22T01:25:46.888Z,88.95
2022-10-22T01:27:12.156Z,88.81
2022-10-22T01:28:21.832Z,88.75
2022-10-22T01:29:30.656Z,88.87
2022-10-22T01:30:33.576Z,88.82
2022-10-22T01:31:38.766Z,89.09
2022-10-22T01:32:46.464Z,89.19
2022-10-22T01:33:49.658Z,89.26
2022-10-22T01:34:54.320Z,88.72
2022-10-22T01:35:57.961Z,88.93
2022-10-22T01:37:00.240Z,88.92
2022-10-22T01:38:04.469Z,89.09
2022-10-22T01:39:07.614Z,88.92
2022-10-22T01:40:10.354Z,88.85
2022-10-22T01:41:12.746Z,89.10
2022-10-22T01:42:15.279Z,88.54
2022-10-22T01:43:17.031Z,88.46
2022-10-22T01:44:32.898Z,88.84
2022-10-22T01:45:40.719Z,88.77
2022-10-22T01:46:42.518Z,88.41
2022-10-22T01:48:23.060Z,88.50
2022-10-22T01:49:31.148Z,88.62
2022-10-22T01:50:32.915Z,88.26
2022-10-22T01:51:37.447Z,88.45
2022-10-22T01:52:57.916Z,88.32
2022-10-22T01:54:10.043Z,88.64
2022-10-22T01:55:20.261Z,88.42
2022-10-22T01:56:41.284Z,89.01
2022-10-22T01:57:43.352Z,88.69
2022-10-22T01:59:03.361Z,89.11
2022-10-22T02:00:05.359Z,88.55
2022-10-22T02:01:20.925Z,88.42
2022-10-22T02:02:22.792Z,88.55
2022-10-22T02:03:29.670Z,88.54
2022-10-22T02:04:31.395Z,88.95
2022-10-22T02:05:33.223Z,88.99
2022-10-22T02:06:37.120Z,88.91
2022-10-22T02:07:42.529Z,88.81
2022-10-22T02:08:45.642Z,89.18
2022-10-22T02:09:48.053Z,88.87
2022-10-22T02:10:50.462Z,88.77
2022-10-22T02:11:52.880Z,88.80
2022-10-22T02:12:56.290Z,88.49
2022-10-22T02:14:00.121Z,88.58
2022-10-22T02:15:03.227Z,88.69
2022-10-22T02:16:07.282Z,88.09
2022-10-22T02:17:11.699Z,88.47
2022-10-22T02:18:14.644Z,88.24
2022-10-22T02:19:23.700Z,88.11
2022-10-22T02:20:30.163Z,88.44
2022-10-22T02:21:32.275Z,88.18
2022-10-22T02:22:34.416Z,88.50
2022-10-22T02:23:36.415Z,87.94
2022-10-22T02:24:38.221Z,88.25
2022-10-22T02:25:42.347Z,87.84
2022-10-22T02:26:49.178Z,87.86
2022-10-22T02:28:13.770Z,87.74
2022-10-22T02:29:35.339Z,88.10
2022-10-22T02:30:38.899Z,88.05
2022-10-22T02:31:43.561Z,87.62
2022-10-22T02:32:51.771Z,87.69
2022-10-22T02:33:56.180Z,87.75
2022-10-22T02:34:58.790Z,87.73
2022-10-22T02:36:01.495Z,87.78
2022-10-22T02:37:03.741Z,87.48
2022-10-22T02:38:05.890Z,87.57
2022-10-22T02:39:08.393Z,87.32
2022-10-22T02:40:10.751Z,87.41
2022-10-22T02:41:12.495Z,87.16
2022-10-22T02:42:15.007Z,87.24
2022-10-22T02:43:18.210Z,87.46
2022-10-22T02:44:21.399Z,87.29
2022-10-22T02:45:23.383Z,87.22
2022-10-22T02:46:26.192Z,87.64
2022-10-22T02:47:28.027Z,87.58
2022-10-22T02:48:29.820Z,87.64
2022-10-22T02:49:31.756Z,87.73
2022-10-22T02:50:33.526Z,87.77
2022-10-22T02:51:35.362Z,87.51
2022-10-22T02:52:37.444Z,87.61
2022-10-22T02:53:39.857Z,87.82
2022-10-22T02:54:41.677Z,87.25
2022-10-22T02:55:43.417Z,87.65
2022-10-22T02:56:45.270Z,88.01
2022-10-22T02:57:47.091Z,87.70
2022-10-22T02:58:48.887Z,87.94
2022-10-22T02:59:50.699Z,87.91
2022-10-22T03:00:52.576Z,87.92
2022-10-22T03:01:54.513Z,87.81
2022-10-22T03:02:56.280Z,87.78
2022-10-22T03:03:58.036Z,87.84
2022-10-22T03:04:59.991Z,87.86
2022-10-22T03:06:01.798Z,88.16
2022-10-22T03:07:03.756Z,88.08
2022-10-22T03:08:05.615Z,88.29
2022-10-22T03:09:07.471Z,88.05
2022-10-22T03:10:09.607Z,88.11
2022-10-22T03:11:11.447Z,88.19
2022-10-22T03:12:13.369Z,88.17
2022-10-22T03:13:15.131Z,88.26
2022-10-22T03:14:16.904Z,88.23
2022-10-22T03:15:18.819Z,88.25
2022-10-22T03:16:20.667Z,87.74
2022-10-22T03:17:22.473Z,87.88
2022-10-22T03:18:24.295Z,87.79
2022-10-22T03:19:26.079Z,88.05
2022-10-22T03:20:28.203Z,88.15
2022-10-22T03:21:38.134Z,88.10
2022-10-22T03:22:41.425Z,87.85
2022-10-22T03:23:44.091Z,87.61
2022-10-22T03:24:49.099Z,87.61
2022-10-22T03:25:51.024Z,87.53
2022-10-22T03:26:53.295Z,87.54
2022-10-22T03:27:56.600Z,87.73
2022-10-22T03:28:58.640Z,87.63
2022-10-22T03:30:00.528Z,87.55
2022-10-22T03:31:02.376Z,87.64
2022-10-22T03:32:04.235Z,87.79
2022-10-22T03:33:06.052Z,87.89
2022-10-22T03:34:08.034Z,87.76
2022-10-22T03:35:09.871Z,87.50
2022-10-22T03:36:11.715Z,87.51
2022-10-22T03:37:13.663Z,87.25
2022-10-22T03:38:15.712Z,87.71
2022-10-22T03:39:19.655Z,87.48
2022-10-22T03:40:21.560Z,87.87
2022-10-22T03:41:23.584Z,88.35
2022-10-22T03:42:25.440Z,87.89
2022-10-22T03:43:27.900Z,87.85
2022-10-22T03:44:30.302Z,87.70
2022-10-22T03:45:32.208Z,88.13
2022-10-22T03:46:34.040Z,87.73
2022-10-22T03:47:37.031Z,87.48
2022-10-22T03:48:38.929Z,88.02
2022-10-22T03:49:40.715Z,87.59
2022-10-22T03:50:42.454Z,87.50
2022-10-22T03:51:44.370Z,87.48
2022-10-22T03:52:46.219Z,88.10
2022-10-22T03:53:48.052Z,88.14
2022-10-22T03:54:49.868Z,87.74
2022-10-22T03:55:51.674Z,87.83
2022-10-22T03:56:53.519Z,87.62
2022-10-22T03:57:55.300Z,87.51
2022-10-22T03:58:58.053Z,87.88
2022-10-22T03:59:59.868Z,87.84
2022-10-22T04:01:06.436Z,87.79
2022-10-22T04:02:08.784Z,87.77
2022-10-22T04:03:10.603Z,87.48
2022-10-22T04:04:12.433Z,87.60
2022-10-22T04:06:21.140Z,87.45
2022-10-22T04:07:23.069Z,87.44
2022-10-22T04:08:24.851Z,87.18
2022-10-22T04:09:26.713Z,87.21
2022-10-22T04:10:28.541Z,87.27
2022-10-22T04:11:30.363Z,87.13
2022-10-22T04:12:32.207Z,87.32
2022-10-22T04:13:33.979Z,87.28
2022-10-22T04:14:35.781Z,87.01
2022-10-22T04:15:37.622Z,87.09
2022-10-22T04:16:40.487Z,87.48
2022-10-22T04:17:42.501Z,87.44
2022-10-22T04:18:44.921Z,87.35
2022-10-22T04:19:46.640Z,87.37
2022-10-22T04:20:48.580Z,87.39
2022-10-22T04:21:50.479Z,87.57
2022-10-22T04:22:52.299Z,87.48
2022-10-22T04:23:54.271Z,87.23
2022-10-22T04:24:56.060Z,87.52
2022-10-22T04:26:01.632Z,87.02
2022-10-22T04:27:03.411Z,87.23
2022-10-22T04:28:08.902Z,87.46
2022-10-22T04:29:15.952Z,86.91
2022-10-22T04:30:18.382Z,87.35
2022-10-22T04:31:21.307Z,87.24
2022-10-22T04:32:23.042Z,87.23
2022-10-22T04:33:25.240Z,87.19
2022-10-22T04:34:27.855Z,86.84
2022-10-22T04:35:29.742Z,86.63
2022-10-22T04:36:31.598Z,87.04
2022-10-22T04:37:34.379Z,87.00
2022-10-22T04:38:36.324Z,87.39
2022-10-22T04:39:38.164Z,87.71
2022-10-22T04:40:40.023Z,87.92
2022-10-22T04:41:41.855Z,87.88
2022-10-22T04:42:43.714Z,87.33
2022-10-22T04:43:46.043Z,87.37
2022-10-22T04:44:47.931Z,87.43
2022-10-22T04:45:49.883Z,87.60
2022-10-22T04:46:51.711Z,87.24
2022-10-22T04:47:53.607Z,87.29
2022-10-22T04:48:55.699Z,87.73
2022-10-22T04:49:57.554Z,87.28
2022-10-22T04:50:59.402Z,87.73
2022-10-22T04:52:01.178Z,87.52
2022-10-22T04:53:02.964Z,87.95
2022-10-22T04:54:04.992Z,87.83
2022-10-22T04:55:06.943Z,88.11
2022-10-22T04:56:13.558Z,88.00
2022-10-22T04:57:15.335Z,88.56
2022-10-22T04:58:17.162Z,88.53
2022-10-22T04:59:19.085Z,88.36
2022-10-22T05:00:21.010Z,88.36
2022-10-22T05:01:33.899Z,88.71
2022-10-22T05:02:36.703Z,88.13
2022-10-22T05:03:38.586Z,88.26
2022-10-22T05:04:40.478Z,88.15
2022-10-22T05:05:42.234Z,88.84
2022-10-22T05:06:44.584Z,88.43
2022-10-22T05:07:46.342Z,88.25
2022-10-22T05:08:48.442Z,88.35
2022-10-22T05:09:50.555Z,88.90
2022-10-22T05:10:52.328Z,88.53
2022-10-22T05:11:54.302Z,88.35
2022-10-22T05:12:56.117Z,89.13
2022-10-22T05:13:58.565Z,89.35
2022-10-22T05:15:00.406Z,89.34
2022-10-22T05:16:02.539Z,88.79
2022-10-22T05:17:04.388Z,88.98
2022-10-22T05:18:06.272Z,88.88
2022-10-22T05:19:08.723Z,88.72
2022-10-22T05:20:10.734Z,88.45
2022-10-22T05:21:14.389Z,88.80
2022-10-22T05:22:16.231Z,88.75
2022-10-22T05:23:18.052Z,88.48
2022-10-22T05:24:20.095Z,88.92
2022-10-22T05:25:21.973Z,88.85
2022-10-22T05:26:25.359Z,89.84
2022-10-22T05:27:27.348Z,89.63
2022-10-22T05:28:29.166Z,89.17
2022-10-22T05:29:31.056Z,89.09
2022-10-22T05:30:33.012Z,89.46
2022-10-22T05:31:35.170Z,89.43
2022-10-22T05:32:36.960Z,89.55
2022-10-22T05:33:39.099Z,89.35
2022-10-22T05:34:40.856Z,89.36
2022-10-22T05:35:46.641Z,89.31
2022-10-22T05:36:48.639Z,89.22
2022-10-22T05:37:50.411Z,89.65
2022-10-22T05:38:52.273Z,89.53
2022-10-22T05:40:01.822Z,89.51
2022-10-22T05:41:18.701Z,89.61
2022-10-22T05:42:20.481Z,89.42
2022-10-22T05:43:22.215Z,89.52
2022-10-22T05:44:23.998Z,90.05
2022-10-22T05:45:25.799Z,89.92
2022-10-22T05:46:29.036Z,90.01
2022-10-22T05:47:31.020Z,89.83
2022-10-22T05:49:39.558Z,89.25
2022-10-22T05:50:41.328Z,89.13
2022-10-22T05:51:43.196Z,89.44
2022-10-22T05:52:45.000Z,89.14
2022-10-22T05:53:46.890Z,88.96
2022-10-22T05:54:48.671Z,89.32
2022-10-22T05:55:50.472Z,89.43
2022-10-22T05:56:52.358Z,89.38
2022-10-22T05:57:54.162Z,89.33
2022-10-22T05:58:56.735Z,89.43
2022-10-22T05:59:58.499Z,89.40
2022-10-22T06:01:06.694Z,89.19
2022-10-22T06:02:12.039Z,89.10
2022-10-22T06:03:13.859Z,89.47
2022-10-22T06:04:17.349Z,89.53
2022-10-22T06:05:19.185Z,89.48
2022-10-22T06:06:28.144Z,89.59
2022-10-22T06:07:30.680Z,89.82
2022-10-22T06:08:32.533Z,89.73
2022-10-22T06:10:41.875Z,90.21
2022-10-22T06:11:43.881Z,90.41
2022-10-22T06:12:46.903Z,90.19
2022-10-22T06:13:49.252Z,90.01
2022-10-22T06:14:51.084Z,90.14
2022-10-22T06:15:55.996Z,90.51
2022-10-22T06:16:59.689Z,90.19
2022-10-22T06:18:01.523Z,89.81
2022-10-22T06:19:03.520Z,89.90
2022-10-22T06:21:13.215Z,89.83
2022-10-22T06:22:15.019Z,89.60
2022-10-22T06:23:16.856Z,89.29
2022-10-22T06:24:18.627Z,89.58
2022-10-22T06:25:20.460Z,89.08
2022-10-22T06:26:22.349Z,89.40
2022-10-22T06:27:24.141Z,89.01
2022-10-22T06:28:26.276Z,88.86
2022-10-22T06:29:28.023Z,88.85
2022-10-22T06:30:29.776Z,88.97
2022-10-22T06:31:37.191Z,89.46
2022-10-22T06:32:39.398Z,89.81
2022-10-22T06:33:44.664Z,90.23
2022-10-22T06:34:48.558Z,89.46
2022-10-22T06:35:50.428Z,89.90
2022-10-22T06:36:52.223Z,89.84
2022-10-22T06:37:54.009Z,90.11
2022-10-22T06:38:56.363Z,89.75
2022-10-22T06:39:58.134Z,89.50
2022-10-22T06:41:04.230Z,89.35
2022-10-22T06:42:06.072Z,89.33
2022-10-22T06:43:08.039Z,89.68
2022-10-22T06:44:14.165Z,89.57
2022-10-22T06:45:16.075Z,90.24
2022-10-22T06:46:20.174Z,90.31
2022-10-22T06:47:22.171Z,89.98
2022-10-22T06:48:23.984Z,90.17
2022-10-22T06:49:25.781Z,90.18
2022-10-22T06:50:27.673Z,90.09
2022-10-22T06:51:29.914Z,89.97
2022-10-22T06:52:31.701Z,90.48
2022-10-22T06:53:33.571Z,91.24
2022-10-22T06:54:35.428Z,91.19
2022-10-22T06:55:37.278Z,90.90
2022-10-22T06:56:39.155Z,91.38
2022-10-22T06:57:41.178Z,91.77
2022-10-22T06:58:43.580Z,91.87
2022-10-22T06:59:46.348Z,91.73
2022-10-22T07:00:48.727Z,91.87
2022-10-22T07:01:50.727Z,91.76
2022-10-22T07:02:57.642Z,91.51
2022-10-22T07:04:01.650Z,91.22
2022-10-22T07:05:03.485Z,91.68
2022-10-22T07:06:06.943Z,91.22
2022-10-22T07:07:08.861Z,92.18
2022-10-22T07:08:10.699Z,92.67
2022-10-22T07:09:12.561Z,92.20
2022-10-22T07:10:14.391Z,92.01
2022-10-22T07:11:17.948Z,91.93
2022-10-22T07:12:19.767Z,91.65
2022-10-22T07:13:21.728Z,91.63
2022-10-22T07:14:23.526Z,91.87
2022-10-22T07:15:25.470Z,91.62
2022-10-22T07:16:29.730Z,91.71
2022-10-22T07:17:34.333Z,92.10
2022-10-22T07:18:37.051Z,91.80
2022-10-22T07:19:39.430Z,91.89
2022-10-22T07:20:41.287Z,92.06
2022-10-22T07:21:43.164Z,91.79
2022-10-22T07:22:45.584Z,92.20
2022-10-22T07:23:47.503Z,91.96
2022-10-22T07:24:49.461Z,92.20
2022-10-22T07:25:51.271Z,92.16
2022-10-22T07:26:53.107Z,91.69
2022-10-22T07:27:54.904Z,91.95
2022-10-22T07:28:57.574Z,91.62
2022-10-22T07:30:01.390Z,91.69
2022-10-22T07:31:03.115Z,92.14
2022-10-22T07:32:05.103Z,91.83
2022-10-22T07:33:07.047Z,91.72
2022-10-22T07:34:09.373Z,91.52
2022-10-22T07:35:11.289Z,91.50
2022-10-22T07:36:17.974Z,91.54
2022-10-22T07:37:22.284Z,91.49
2022-10-22T07:38:24.072Z,91.61
2022-10-22T07:39:26.480Z,92.22
2022-10-22T07:40:28.275Z,92.40
2022-10-22T07:41:30.708Z,92.30
2022-10-22T07:42:32.538Z,93.09
2022-10-22T07:43:34.361Z,93.79
2022-10-22T07:44:36.201Z,93.94
2022-10-22T07:45:38.096Z,94.01
2022-10-22T07:46:40.096Z,93.70
2022-10-22T07:47:42.283Z,93.50
2022-10-22T07:48:44.275Z,93.33
2022-10-22T07:49:46.130Z,93.42
2022-10-22T07:50:49.598Z,93.55
2022-10-22T07:51:51.380Z,94.19
2022-10-22T07:52:54.895Z,94.15
2022-10-22T07:53:59.330Z,94.38
2022-10-22T07:55:01.202Z,94.42
2022-10-22T07:56:02.954Z,94.44
2022-10-22T07:57:04.723Z,94.27
2022-10-22T07:58:06.575Z,94.23
2022-10-22T07:59:08.385Z,94.68
2022-10-22T08:00:10.541Z,94.37
2022-10-22T08:01:12.442Z,94.41
2022-10-22T08:02:14.355Z,94.35
2022-10-22T08:03:18.045Z,93.81
2022-10-22T08:04:19.783Z,93.76
2022-10-22T08:05:21.604Z,93.84
2022-10-22T08:06:23.399Z,93.82
2022-10-22T08:08:30.937Z,93.28
2022-10-22T08:09:33.028Z,93.22
2022-10-22T08:10:35.643Z,93.24
2022-10-22T08:11:38.673Z,93.45
2022-10-22T08:12:41.597Z,93.27
2022-10-22T08:13:45.533Z,93.47
2022-10-22T08:14:47.510Z,93.07
2022-10-22T08:15:51.431Z,93.28
2022-10-22T08:16:55.488Z,93.21
2022-10-22T08:17:57.299Z,92.94
2022-10-22T08:18:59.156Z,93.05
2022-10-22T08:20:00.949Z,92.89
2022-10-22T08:21:02.914Z,92.98
2022-10-22T08:22:04.873Z,92.85
2022-10-22T08:23:06.670Z,92.97
2022-10-22T08:24:08.467Z,92.63
2022-10-22T08:25:10.957Z,92.80
2022-10-22T08:26:12.832Z,92.78
2022-10-22T08:27:14.788Z,92.90
2022-10-22T08:28:19.868Z,93.06
2022-10-22T08:29:24.254Z,92.77
2022-10-22T08:30:28.089Z,93.16
2022-10-22T08:31:29.933Z,93.49
2022-10-22T08:32:31.846Z,93.62
2022-10-22T08:33:34.018Z,93.74
2022-10-22T08:34:35.854Z,94.27
2022-10-22T08:35:37.628Z,94.12
2022-10-22T08:36:39.628Z,94.22
2022-10-22T08:37:41.861Z,94.18
2022-10-22T08:38:44.564Z,94.00
2022-10-22T08:39:46.661Z,93.57
2022-10-22T08:40:50.702Z,93.66
2022-10-22T08:41:52.499Z,93.75
2022-10-22T08:42:55.300Z,93.51
2022-10-22T08:44:07.920Z,93.48
2022-10-22T08:45:18.624Z,93.80
2022-10-22T08:46:20.912Z,93.72
2022-10-22T08:47:34.089Z,93.66
2022-10-22T08:48:38.855Z,93.71
2022-10-22T08:49:42.455Z,93.96
2022-10-22T08:50:46.553Z,93.83
2022-10-22T08:51:49.031Z,93.63
2022-10-22T08:52:53.987Z,93.80
2022-10-22T08:54:16.021Z,94.40
2022-10-22T08:55:17.940Z,94.81
2022-10-22T08:56:22.289Z,94.52
2022-10-22T08:57:29.215Z,94.37
2022-10-22T08:58:34.095Z,94.23
2022-10-22T08:59:47.436Z,94.11
2022-10-22T09:00:58.981Z,93.90
2022-10-22T09:02:01.687Z,93.61
2022-10-22T09:03:12.559Z,93.65
2022-10-22T09:04:25.832Z,93.35
2022-10-22T09:05:27.550Z,93.53
2022-10-22T09:06:30.508Z,93.53
2022-10-22T09:07:32.414Z,93.56
2022-10-22T09:08:35.698Z,93.57
2022-10-22T09:09:42.480Z,93.29
2022-10-22T09:10:47.834Z,93.24
2022-10-22T09:11:51.455Z,94.09
2022-10-22T09:12:53.298Z,94.43
2022-10-22T09:13:56.756Z,95.10
2022-10-22T09:14:58.686Z,95.24
2022-10-22T09:16:01.913Z,95.28
2022-10-22T09:17:13.003Z,94.80
2022-10-22T09:18:17.627Z,94.73
2022-10-22T09:19:38.356Z,94.44
2022-10-22T09:20:43.035Z,94.42
2022-10-22T09:22:03.543Z,94.31
2022-10-22T09:23:21.359Z,93.97
2022-10-22T09:24:40.068Z,93.93
2022-10-22T09:25:42.507Z,93.89
2022-10-22T09:26:44.360Z,93.68
2022-10-22T09:27:46.466Z,93.88
2022-10-22T09:28:51.722Z,93.79
2022-10-22T09:29:53.596Z,93.84
2022-10-22T09:30:55.520Z,94.16
2022-10-22T09:31:57.448Z,94.02
2022-10-22T09:33:07.460Z,94.13
2022-10-22T09:34:09.303Z,94.55
2022-10-22T09:35:12.590Z,94.57
2022-10-22T09:36:16.997Z,94.66
2022-10-22T09:37:20.241Z,94.79
2022-10-22T09:38:25.820Z,95.09
2022-10-22T09:39:29.167Z,94.48
2022-10-22T09:40:31.048Z,94.57
2022-10-22T09:41:33.474Z,94.46
2022-10-22T09:42:35.391Z,94.37
2022-10-22T09:43:37.396Z,94.17
2022-10-22T09:44:39.232Z,94.08
2022-10-22T09:45:41.996Z,94.15
2022-10-22T09:46:45.842Z,93.91
2022-10-22T09:48:01.526Z,94.42
2022-10-22T09:49:09.792Z,95.23
2022-10-22T09:50:11.772Z,95.07
2022-10-22T09:51:16.751Z,94.96
2022-10-22T09:52:28.659Z,95.35
2022-10-22T09:53:36.134Z,96.51
2022-10-22T09:54:39.631Z,96.83
2022-10-22T09:55:42.646Z,96.73
2022-10-22T09:56:51.368Z,96.59
2022-10-22T09:57:54.458Z,96.38
2022-10-22T09:58:57.504Z,96.21
2022-10-22T09:59:59.589Z,96.33
2022-10-22T10:01:01.934Z,96.49
2022-10-22T10:02:19.828Z,96.06
2022-10-22T10:03:31.294Z,95.56
2022-10-22T10:04:40.538Z,95.29
2022-10-22T10:05:44.356Z,94.74
2022-10-22T10:06:46.260Z,94.68
2022-10-22T10:07:48.602Z,94.38
2022-10-22T10:08:50.929Z,94.44
2022-10-22T10:09:54.074Z,94.39
2022-10-22T10:10:55.977Z,94.70
2022-10-22T10:12:16.627Z,94.71
2022-10-22T10:13:30.476Z,94.61
2022-10-22T10:14:37.994Z,95.13
2022-10-22T10:16:02.894Z,95.90
2022-10-22T10:17:07.818Z,96.37
2022-10-22T10:18:21.713Z,96.38
2022-10-22T10:19:26.583Z,95.76
2022-10-22T10:20:28.566Z,95.83
2022-10-22T10:21:33.364Z,95.40
2022-10-22T10:22:38.580Z,95.48
2022-10-22T10:23:40.737Z,95.26
2022-10-22T10:25:01.218Z,95.29
2022-10-22T10:26:14.821Z,94.97
2022-10-22T10:27:35.471Z,95.13
2022-10-22T10:28:46.189Z,95.09
2022-10-22T10:29:51.054Z,94.98
2022-10-22T10:31:16.190Z,95.83
2022-10-22T10:32:33.371Z,96.62
2022-10-22T10:33:52.130Z,96.92
2022-10-22T10:34:56.210Z,96.72
2022-10-22T10:36:30.384Z,96.58
2022-10-22T10:38:01.232Z,96.69
2022-10-22T10:39:24.500Z,96.99
2022-10-22T10:40:38.762Z,96.55
2022-10-22T10:41:51.893Z,96.40
2022-10-22T10:43:25.849Z,96.50
2022-10-22T10:44:27.685Z,97.14
2022-10-22T10:45:34.826Z,97.52
2022-10-22T10:46:55.194Z,97.79
2022-10-22T10:48:17.971Z,97.81
2022-10-22T10:49:31.703Z,98.06
2022-10-22T10:50:44.135Z,98.49
2022-10-22T10:51:45.919Z,98.83
2022-10-22T10:53:00.748Z,99.35
2022-10-22T10:54:16.611Z,99.36
2022-10-22T10:55:21.189Z,99.41
2022-10-22T10:56:23.008Z,99.37
2022-10-22T10:57:33.553Z,99.02
2022-10-22T10:58:43.556Z,98.82
2022-10-22T11:00:05.769Z,98.46
2022-10-22T11:01:23.166Z,97.89
2022-10-22T11:02:42.950Z,97.90
2022-10-22T11:04:03.913Z,97.57
2022-10-22T11:05:24.121Z,97.39
2022-10-22T11:06:27.035Z,97.11
2022-10-22T11:07:42.977Z,97.23
2022-10-22T11:08:50.353Z,97.06
2022-10-22T11:09:58.396Z,97.11
2022-10-22T11:11:06.730Z,97.17
2022-10-22T11:12:29.734Z,98.02
2022-10-22T11:13:54.737Z,98.88
2022-10-22T11:15:02.172Z,99.21
2022-10-22T11:16:22.449Z,99.21
2022-10-22T11:17:25.240Z,99.13
2022-10-22T11:18:33.391Z,98.90
2022-10-22T11:19:50.632Z,98.74
2022-10-22T11:21:12.333Z,98.10
2022-10-22T11:22:38.220Z,98.35
2022-10-22T11:23:46.493Z,97.91
2022-10-22T11:25:08.636Z,97.86
2022-10-22T11:26:15.598Z,97.45
2022-10-22T11:27:17.345Z,97.57
2022-10-22T11:28:33.262Z,97.87
2022-10-22T11:29:39.515Z,97.74
2022-10-22T11:30:42.156Z,97.72
2022-10-22T11:31:44.731Z,97.79
2022-10-22T11:32:49.368Z,97.91
2022-10-22T11:33:52.693Z,97.78
2022-10-22T11:35:04.562Z,98.42
2022-10-22T11:36:07.937Z,98.50
2022-10-22T11:37:11.557Z,98.63
2022-10-22T11:38:17.735Z,98.36
2022-10-22T11:39:38.015Z,98.27
2022-10-22T11:40:44.406Z,98.05
2022-10-22T11:41:46.504Z,97.88
2022-10-22T11:42:50.096Z,97.69
2022-10-22T11:43:53.461Z,97.80
2022-10-22T11:45:00.913Z,97.09
2022-10-22T11:46:25.842Z,96.79
2022-10-22T11:47:29.370Z,96.48
2022-10-22T11:48:36.630Z,96.71
2022-10-22T11:49:45.558Z,96.63
2022-10-22T11:50:53.129Z,96.88
2022-10-22T11:52:14.918Z,96.95
2022-10-22T11:53:23.494Z,96.86
2022-10-22T11:54:34.356Z,96.74
2022-10-22T11:55:55.798Z,96.73
2022-10-22T11:57:17.831Z,96.45
2022-10-22T11:58:25.766Z,96.65
2022-10-22T11:59:42.454Z,96.68
2022-10-22T12:00:48.262Z,97.26
2022-10-22T12:01:55.749Z,97.38
2022-10-22T12:03:18.124Z,97.93
2022-10-22T12:04:23.773Z,98.60
2022-10-22T12:05:25.598Z,98.85
2022-10-22T12:06:28.445Z,98.83
2022-10-22T12:07:34.932Z,98.94
2022-10-22T12:08:42.570Z,98.68
2022-10-22T12:09:47.708Z,98.64
2022-10-22T12:11:03.298Z,98.40
2022-10-22T12:12:13.689Z,98.81
2022-10-22T12:13:22.699Z,98.53
2022-10-22T12:14:29.861Z,98.61
2022-10-22T12:15:32.024Z,98.46
2022-10-22T12:16:54.763Z,98.42
2022-10-22T12:18:04.053Z,98.66
2022-10-22T12:19:12.999Z,98.57
2022-10-22T12:20:14.885Z,98.17
2022-10-22T12:21:17.450Z,98.35
2022-10-22T12:22:21.444Z,98.27
2022-10-22T12:23:27.187Z,98.47
2022-10-22T12:24:34.909Z,98.66
2022-10-22T12:25:36.971Z,98.95
2022-10-22T12:26:38.953Z,98.92
2022-10-22T12:27:41.480Z,98.92
2022-10-22T12:28:43.509Z,99.00
2022-10-22T12:29:45.307Z,98.92
2022-10-22T12:30:47.572Z,99.38
2022-10-22T12:31:49.517Z,99.28
2022-10-22T12:32:56.624Z,99.08
2022-10-22T12:33:59.073Z,99.06
2022-10-22T12:35:04.128Z,98.85
2022-10-22T12:36:06.456Z,98.70
2022-10-22T12:37:08.343Z,98.97
2022-10-22T12:38:14.248Z,98.91
2022-10-22T12:39:17.475Z,99.39
2022-10-22T12:40:24.669Z,99.77
2022-10-22T12:41:37.083Z,100.00
2022-10-22T12:42:38.931Z,100.00
2022-10-22T12:43:40.797Z,100.00
2022-10-22T12:44:43.813Z,99.90
2022-10-22T12:45:47.307Z,99.81
2022-10-22T12:46:53.005Z,99.58
2022-10-22T12:48:02.503Z,99.66
2022-10-22T12:49:09.589Z,99.32
2022-10-22T12:50:16.072Z,99.17
2022-10-22T12:51:20.276Z,98.94
2022-10-22T12:52:24.068Z,98.81
2022-10-22T12:53:38.069Z,98.59
2022-10-22T12:54:40.226Z,98.67
2022-10-22T12:55:42.381Z,99.20
2022-10-22T12:56:47.851Z,98.97
2022-10-22T12:57:49.828Z,99.19
2022-10-22T12:59:18.875Z,99.16
2022-10-22T13:00:33.665Z,99.27
2022-10-22T13:01:37.828Z,99.41
2022-10-22T13:02:39.908Z,99.16
2022-10-22T13:03:43.679Z,99.10
2022-10-22T13:05:05.463Z,98.80
2022-10-22T13:06:19.240Z,98.69
2022-10-22T13:07:22.311Z,98.90
2022-10-22T13:08:27.622Z,98.74
2022-10-22T13:09:38.441Z,98.43
2022-10-22T13:10:41.951Z,98.60
2022-10-22T13:11:58.509Z,98.57
2022-10-22T13:13:03.429Z,98.93
2022-10-22T13:14:06.229Z,98.58
2022-10-22T13:15:26.926Z,98.64
2022-10-22T13:16:30.618Z,99.08
2022-10-22T13:17:42.502Z,99.14
2022-10-22T13:18:45.522Z,99.18
2022-10-22T13:19:50.059Z,99.16
2022-10-22T13:20:51.965Z,99.00
2022-10-22T13:21:54.626Z,99.03
2022-10-22T13:23:03.721Z,98.97
2022-10-22T13:24:22.303Z,98.75
2022-10-22T13:25:28.914Z,98.60
2022-10-22T13:26:32.588Z,98.59
2022-10-22T13:27:34.560Z,98.56
2022-10-22T13:28:36.402Z,98.64
2022-10-22T13:29:41.919Z,98.56
2022-10-22T13:30:52.318Z,98.55
2022-10-22T13:31:54.401Z,98.22
2022-10-22T13:32:59.668Z,98.20
2022-10-22T13:34:06.571Z,98.73
2022-10-22T13:35:16.115Z,98.84
2022-10-22T13:36:18.463Z,98.82
2022-10-22T13:37:20.260Z,98.49
2022-10-22T13:38:23.636Z,98.42
2022-10-22T13:39:25.515Z,99.08
2022-10-22T13:40:27.634Z,98.94
2022-10-22T13:41:34.084Z,99.01
2022-10-22T13:42:36.303Z,98.45
2022-10-22T13:43:38.138Z,98.46
2022-10-22T13:44:39.947Z,98.58
2022-10-22T13:45:41.981Z,98.32
2022-10-22T13:46:43.894Z,98.27
2022-10-22T13:47:48.852Z,98.13
2022-10-22T13:48:53.037Z,98.32
2022-10-22T13:49:59.912Z,98.60
2022-10-22T13:51:01.694Z,98.30
2022-10-22T13:52:03.952Z,98.28
2022-10-22T13:53:06.337Z,98.48
2022-10-22T13:54:14.710Z,98.01
2022-10-22T13:55:36.680Z,98.04
2022-10-22T13:56:38.533Z,98.05
2022-10-22T13:57:40.441Z,98.20
2022-10-22T13:58:43.657Z,98.13
2022-10-22T13:59:45.525Z,98.47
2022-10-22T14:00:49.317Z,98.43
2022-10-22T14:01:51.568Z,97.99
2022-10-22T14:02:55.494Z,98.13